createdAt,value
2018-03-29T00:01:31.866Z,10.00
2018-03-29T00:04:01.247Z,10.10
2018-03-29T00:06:30.562Z,10.00
2018-03-29T00:09:00.042Z,10.20
2018-03-29T00:11:31.012Z,9.70
2018-03-29T00:14:02.663Z,9.80
2018-03-29T00:16:34.113Z,9.80
2018-03-29T00:19:04.641Z,9.40
2018-03-29T00:21:34.705Z,9.40
2018-03-29T00:24:06.830Z,9.20
2018-03-29T00:26:36.821Z,9.40
2018-03-29T00:29:07.150Z,9.30
2018-03-29T00:31:38.382Z,9.00
2018-03-29T00:34:11.326Z,9.30
2018-03-29T00:36:45.006Z,9.80
2018-03-29T00:39:21.426Z,10.00
2018-03-29T00:41:53.884Z,9.70
2018-03-29T00:44:23.935Z,9.80
2018-03-29T00:47:00.208Z,9.80
2018-03-29T00:49:37.868Z,9.30
2018-03-29T00:52:09.757Z,9.40
2018-03-29T00:54:45.538Z,9.60
2018-03-29T00:57:16.826Z,9.60
2018-03-29T00:59:52.227Z,9.70
2018-03-29T01:02:23.712Z,9.80
2018-03-29T01:04:55.493Z,9.70
2018-03-29T01:07:26.752Z,9.60
2018-03-29T01:09:59.021Z,9.30
2018-03-29T01:12:33.782Z,9.60
2018-03-29T01:15:04.736Z,9.60
2018-03-29T01:17:34.887Z,9.40
2018-03-29T01:20:05.139Z,9.40
2018-03-29T01:22:41.755Z,9.70
2018-03-29T01:25:12.007Z,9.70
2018-03-29T01:27:44.837Z,9.60
2018-03-29T01:30:15.714Z,9.40
2018-03-29T01:32:46.465Z,9.00
2018-03-29T01:35:23.239Z,8.90
2018-03-29T01:37:54.420Z,9.30
2018-03-29T01:40:26.804Z,9.40
2018-03-29T01:42:57.963Z,9.30
2018-03-29T01:45:29.057Z,8.80
2018-03-29T01:47:59.540Z,9.00
2018-03-29T01:50:30.883Z,8.90
2018-03-29T01:53:04.617Z,9.10
2018-03-29T01:55:35.801Z,9.10
2018-03-29T01:58:07.889Z,9.20
2018-03-29T02:00:39.238Z,9.30
2018-03-29T02:03:09.442Z,9.00
2018-03-29T02:05:42.605Z,8.80
2018-03-29T02:08:14.215Z,8.40
2018-03-29T02:10:46.869Z,8.60
2018-03-29T02:13:19.964Z,8.40
2018-03-29T02:15:50.814Z,8.50
2018-03-29T02:18:21.734Z,8.20
2018-03-29T02:20:54.508Z,8.20
2018-03-29T02:23:26.095Z,8.40
2018-03-29T02:25:55.694Z,8.60
2018-03-29T02:28:31.757Z,8.90
2018-03-29T02:31:08.375Z,8.90
2018-03-29T02:33:38.661Z,9.00
2018-03-29T02:36:13.590Z,9.30
2018-03-29T02:38:43.821Z,9.30
2018-03-29T02:41:13.955Z,9.30
2018-03-29T02:43:45.187Z,9.30
2018-03-29T02:46:16.972Z,9.00
2018-03-29T02:48:46.904Z,9.00
2018-03-29T02:51:16.636Z,9.10
2018-03-29T02:53:47.652Z,9.20
2018-03-29T02:56:18.761Z,8.80
2018-03-29T02:58:51.204Z,9.10
2018-03-29T03:01:24.075Z,9.10
2018-03-29T03:03:54.524Z,9.10
2018-03-29T03:06:24.529Z,9.30
2018-03-29T03:08:57.613Z,9.10
2018-03-29T03:11:27.600Z,9.40
2018-03-29T03:13:58.779Z,9.40
2018-03-29T03:16:29.440Z,9.20
2018-03-29T03:19:00.351Z,8.80
2018-03-29T03:21:30.396Z,8.70
2018-03-29T03:24:03.371Z,8.80
2018-03-29T03:26:35.275Z,9.00
2018-03-29T03:29:06.770Z,9.10
2018-03-29T03:31:38.591Z,8.90
2018-03-29T03:34:08.765Z,9.20
2018-03-29T03:36:39.882Z,9.40
2018-03-29T03:39:10.780Z,9.30
2018-03-29T03:41:42.284Z,9.00
2018-03-29T03:44:14.196Z,9.20
2018-03-29T03:46:46.834Z,9.10
2018-03-29T03:49:17.896Z,9.20
2018-03-29T03:51:50.658Z,8.40
2018-03-29T03:54:21.743Z,8.40
2018-03-29T03:56:51.887Z,8.20
2018-03-29T03:59:23.010Z,8.20
2018-03-29T04:01:55.129Z,8.20
2018-03-29T04:04:26.243Z,7.90
2018-03-29T04:06:58.840Z,8.00
2018-03-29T04:09:43.698Z,8.60
2018-03-29T04:12:17.563Z,8.40
2018-03-29T04:14:49.962Z,8.40
2018-03-29T04:17:20.504Z,8.20
2018-03-29T04:19:53.314Z,8.40
2018-03-29T04:22:23.832Z,8.40
2018-03-29T04:24:54.836Z,8.60
2018-03-29T04:27:26.778Z,8.70
2018-03-29T04:29:58.214Z,8.80
2018-03-29T04:32:28.627Z,8.80
2018-03-29T04:35:00.405Z,8.80
2018-03-29T04:37:30.684Z,8.50
2018-03-29T04:40:03.209Z,8.70
2018-03-29T04:42:34.018Z,8.40
2018-03-29T04:45:03.962Z,8.10
2018-03-29T04:47:34.404Z,8.30
2018-03-29T04:50:05.366Z,8.60
2018-03-29T04:52:38.343Z,8.50
2018-03-29T04:55:12.562Z,8.50
2018-03-29T04:57:47.297Z,7.80
2018-03-29T05:00:17.448Z,7.90
2018-03-29T05:02:46.776Z,8.20
2018-03-29T05:05:16.124Z,8.10
2018-03-29T05:07:45.791Z,8.30
2018-03-29T05:10:15.115Z,8.40
2018-03-29T05:12:47.007Z,8.60
2018-03-29T05:15:18.512Z,8.60
2018-03-29T05:17:55.555Z,8.80
2018-03-29T05:20:31.315Z,9.00
2018-03-29T05:23:02.855Z,9.10
2018-03-29T05:25:36.169Z,8.90
2018-03-29T05:28:09.900Z,8.80
2018-03-29T05:30:40.781Z,8.80
2018-03-29T05:33:11.872Z,8.80
2018-03-29T05:35:43.167Z,8.80
2018-03-29T05:38:13.163Z,8.80
2018-03-29T05:40:43.247Z,8.80
2018-03-29T05:43:15.070Z,9.10
2018-03-29T05:46:07.312Z,9.10
